Estación Meteorológica Peña el Pijo (Robertgarden) [ 09/24/17 17:54:02 CEST ]

Fecha Hora Presion(HPa) Temp (°C) Humedad % Rocio (°C) Viento ( m/s) Direccion Lluvia 1Hora(mm) Lluvia 24H(mm) LLuvia Total(mm)
2017-Sep-01 01:01:38 1012.000 13.8 88 11.8       5.18 1457.65
2017-Sep-01 02:01:47 1012.000 13.3 89 11.5       5.18 1457.65
2017-Sep-01 03:01:47 1012.000 12.8 89 11.0       5.18 1457.65
2017-Sep-01 04:01:38 1011.600 12.5 90 10.9       5.18 1457.65
2017-Sep-01 05:05:12 1011.300 12.0 90 10.4       5.18 1457.65
2017-Sep-01 06:01:40 1011.300 11.5 90 9.9       5.18 1457.65
2017-Sep-01 07:01:53 1011.500 11.1 91 9.7       5.18 1457.65
2017-Sep-01 08:01:57 1011.800 10.9 91 9.5       5.18 1457.65
2017-Sep-01 09:02:00 1011.900 13.8 92 12.5       5.18 1457.65
2017-Sep-01 10:01:49 1012.100 17.2 92 15.9       5.18 1457.65
2017-Sep-01 11:01:48 1012.100 22.6 79 18.8       5.18 1457.65
2017-Sep-01 12:01:51 1012.000 26.1 60 17.8       5.18 1457.65
2017-Sep-01 13:01:52 1011.700 28.9 53 18.4       5.18 1457.65
2017-Sep-01 14:01:43 1011.100 28.0 48 15.9       5.18 1457.65
2017-Sep-01 15:02:05 1010.700 27.9 48 15.8 1.2 NNE   5.18 1457.65
2017-Sep-01 16:01:39 1010.100 26.4 48 14.5       2.07 1457.65
2017-Sep-01 17:01:45 1009.700 26.6 49 15.0       0.51 1457.65
2017-Sep-01 18:01:55 1009.700 25.4 54 15.4         1457.65
2017-Sep-01 19:01:48 1009.700 25.4 53 15.1         1457.65
2017-Sep-01 20:01:43 1010.100 22.5 63 15.1         1457.65
2017-Sep-01 21:01:41 1010.600 20.9 68 14.7         1457.65
2017-Sep-01 22:01:43 1011.400 19.9 73 14.9         1457.65
2017-Sep-01 23:01:52 1011.800 18.8 77 14.8         1457.65

Temperatura Máxima:28°    Temperatura Mínima:10°
Presión Máxima:1012.100 Hpa    Presión Mínima:1009.700 Hpa


Volver